MMTJ/TIJ METAR and TAF weather

Enter ICAO airport designator
Station Type Date Time Source
MMTJ METAR 2020/09/23 01:46 UTC NOAA

MMTJ 230146Z 28009KT 7SM SKC 20/18 A3001 RMK HZY


Station Type Date Time Source
MMTJ Decoded METAR 2020/09/23 01:46 UTC NOAA

Tijuana International Airport , Mexico (MMTJ) 32-33N 116-58W
Sep 22, 2020 - 09:46 PM EDT / 2020.09.23 0146 UTC
Wind: from the W (280 degrees) at 10 MPH (9 KT):0
Visibility: 7 mile(s):0
Sky conditions: clear
Temperature: 68 F (20 C)
Dew Point: 64 F (18 C)
Relative Humidity: 88%
Pressure (altimeter): 30.01 in. Hg (1016 hPa)
ob: MMTJ 230146Z 28009KT 7SM SKC 20/18 A3001 RMK HZY
cycle: 2

Station Type Date Time Source
MMTJ TAF 2020/09/22 18:12 UTC NOAA

TAF MMTJ 221705Z 2218/2324 28010KT 5SM HZ SKC TX25/2222Z TN17/2312Z
FM230600 00000KT 5SM HZ BKN010
FM231000 00000KT 3SM BR OVC006
TEMPO 2311/2315 1SM BR OVC003
FM231600 28010KT 5SM HZ SCT015
FM231800 28010KT P6SM SKC

Example: see airport list